sensor_id;sensor_type;location;lat;lon;timestamp;pressure;altitude;pressure_sealevel;temperature;humidity
26376;BME280;30544;42.196;24.336;2022-12-20T00:01:22;101419.03;;;1.76;75.77
26376;BME280;30544;42.196;24.336;2022-12-20T00:03:49;101423.59;;;1.66;75.99
26376;BME280;30544;42.196;24.336;2022-12-20T00:06:17;101422.22;;;1.50;77.06
26376;BME280;30544;42.196;24.336;2022-12-20T00:08:45;101429.47;;;1.10;78.23
26376;BME280;30544;42.196;24.336;2022-12-20T00:11:12;101419.41;;;1.62;78.62
26376;BME280;30544;42.196;24.336;2022-12-20T00:13:40;101427.22;;;1.45;77.00
26376;BME280;30544;42.196;24.336;2022-12-20T00:16:09;101427.50;;;1.42;77.04
26376;BME280;30544;42.196;24.336;2022-12-20T00:18:36;101428.69;;;1.80;76.54
26376;BME280;30544;42.196;24.336;2022-12-20T00:21:06;101428.00;;;1.27;76.10
26376;BME280;30544;42.196;24.336;2022-12-20T00:23:33;101429.16;;;1.55;76.33
26376;BME280;30544;42.196;24.336;2022-12-20T00:26:01;101424.69;;;1.54;74.29
26376;BME280;30544;42.196;24.336;2022-12-20T00:28:29;101430.25;;;1.42;75.26
26376;BME280;30544;42.196;24.336;2022-12-20T00:30:57;101432.53;;;1.68;75.44
26376;BME280;30544;42.196;24.336;2022-12-20T00:33:24;101435.44;;;1.45;75.61
26376;BME280;30544;42.196;24.336;2022-12-20T00:35:53;101432.28;;;1.19;75.69
26376;BME280;30544;42.196;24.336;2022-12-20T00:38:20;101424.31;;;1.16;75.05
26376;BME280;30544;42.196;24.336;2022-12-20T00:40:46;101425.88;;;1.61;75.03
26376;BME280;30544;42.196;24.336;2022-12-20T00:43:13;101426.31;;;1.14;74.85
26376;BME280;30544;42.196;24.336;2022-12-20T00:45:40;101429.81;;;1.37;74.16
26376;BME280;30544;42.196;24.336;2022-12-20T00:48:08;101426.88;;;1.08;74.48
26376;BME280;30544;42.196;24.336;2022-12-20T00:50:35;101418.00;;;0.95;75.88
26376;BME280;30544;42.196;24.336;2022-12-20T00:53:02;101422.31;;;1.39;75.37
26376;BME280;30544;42.196;24.336;2022-12-20T00:55:28;101418.47;;;1.21;75.14
26376;BME280;30544;42.196;24.336;2022-12-20T00:57:55;101405.31;;;1.15;76.54
26376;BME280;30544;42.196;24.336;2022-12-20T01:00:22;101409.66;;;1.38;76.08
26376;BME280;30544;42.196;24.336;2022-12-20T01:02:49;101402.09;;;1.52;76.27
26376;BME280;30544;42.196;24.336;2022-12-20T01:05:17;101396.94;;;1.58;75.92
26376;BME280;30544;42.196;24.336;2022-12-20T01:07:44;101406.63;;;1.72;75.99
26376;BME280;30544;42.196;24.336;2022-12-20T01:10:11;101402.75;;;1.44;76.11
26376;BME280;30544;42.196;24.336;2022-12-20T01:12:37;101404.69;;;1.32;77.21
26376;BME280;30544;42.196;24.336;2022-12-20T01:15:05;101402.75;;;1.44;76.63
26376;BME280;30544;42.196;24.336;2022-12-20T01:17:32;101397.72;;;1.39;76.67
26376;BME280;30544;42.196;24.336;2022-12-20T01:19:59;101399.66;;;1.58;76.27
26376;BME280;30544;42.196;24.336;2022-12-20T01:22:27;101401.75;;;1.75;76.64
26376;BME280;30544;42.196;24.336;2022-12-20T01:24:54;101405.81;;;1.20;78.24
26376;BME280;30544;42.196;24.336;2022-12-20T01:27:21;101397.97;;;1.36;77.58
26376;BME280;30544;42.196;24.336;2022-12-20T01:29:48;101405.16;;;1.07;77.83
26376;BME280;30544;42.196;24.336;2022-12-20T01:32:14;101395.25;;;1.36;77.77
26376;BME280;30544;42.196;24.336;2022-12-20T01:34:41;101397.00;;;1.47;77.30
26376;BME280;30544;42.196;24.336;2022-12-20T01:37:08;101386.19;;;1.36;78.17
26376;BME280;30544;42.196;24.336;2022-12-20T01:39:36;101383.88;;;1.10;78.16
26376;BME280;30544;42.196;24.336;2022-12-20T01:42:04;101381.16;;;1.41;77.50
26376;BME280;30544;42.196;24.336;2022-12-20T01:44:51;101378.34;;;1.62;76.83
26376;BME280;30544;42.196;24.336;2022-12-20T01:47:18;101387.91;;;1.37;76.05
26376;BME280;30544;42.196;24.336;2022-12-20T01:49:47;101378.59;;;1.18;77.88
26376;BME280;30544;42.196;24.336;2022-12-20T01:52:18;101366.88;;;1.07;76.92
26376;BME280;30544;42.196;24.336;2022-12-20T01:54:51;101363.66;;;1.23;77.15
26376;BME280;30544;42.196;24.336;2022-12-20T01:57:23;101377.41;;;0.90;77.86
26376;BME280;30544;42.196;24.336;2022-12-20T01:59:51;101372.22;;;0.87;77.41
26376;BME280;30544;42.196;24.336;2022-12-20T02:02:19;101360.94;;;1.32;77.02
26376;BME280;30544;42.196;24.336;2022-12-20T02:04:46;101360.19;;;1.00;77.15
26376;BME280;30544;42.196;24.336;2022-12-20T02:07:18;101356.59;;;1.20;76.60
26376;BME280;30544;42.196;24.336;2022-12-20T02:09:48;101357.38;;;1.11;76.71
26376;BME280;30544;42.196;24.336;2022-12-20T02:12:19;101360.84;;;1.13;77.62
26376;BME280;30544;42.196;24.336;2022-12-20T02:14:58;101359.34;;;1.30;76.56
26376;BME280;30544;42.196;24.336;2022-12-20T02:17:33;101342.69;;;1.02;77.48
26376;BME280;30544;42.196;24.336;2022-12-20T02:23:43;101338.69;;;1.16;78.07
26376;BME280;30544;42.196;24.336;2022-12-20T02:26:37;101338.06;;;1.33;77.80
26376;BME280;30544;42.196;24.336;2022-12-20T02:29:20;101340.53;;;1.06;78.57
26376;BME280;30544;42.196;24.336;2022-12-20T02:31:55;101336.81;;;0.65;79.35
26376;BME280;30544;42.196;24.336;2022-12-20T02:34:23;101342.22;;;0.76;79.91
26376;BME280;30544;42.196;24.336;2022-12-20T02:36:52;101342.16;;;0.87;78.90
26376;BME280;30544;42.196;24.336;2022-12-20T02:39:20;101333.09;;;0.87;79.92
26376;BME280;30544;42.196;24.336;2022-12-20T02:41:50;101339.00;;;0.92;79.46
26376;BME280;30544;42.196;24.336;2022-12-20T02:44:23;101334.09;;;0.86;79.54
26376;BME280;30544;42.196;24.336;2022-12-20T02:47:26;101326.28;;;1.02;79.25
26376;BME280;30544;42.196;24.336;2022-12-20T02:49:55;101331.34;;;1.07;79.20
26376;BME280;30544;42.196;24.336;2022-12-20T02:52:24;101326.09;;;1.25;78.49
26376;BME280;30544;42.196;24.336;2022-12-20T02:54:55;101325.25;;;1.34;78.48
26376;BME280;30544;42.196;24.336;2022-12-20T02:57:27;101327.78;;;1.16;78.40
26376;BME280;30544;42.196;24.336;2022-12-20T03:00:02;101334.47;;;1.02;78.85
26376;BME280;30544;42.196;24.336;2022-12-20T03:02:32;101327.03;;;1.14;78.77
26376;BME280;30544;42.196;24.336;2022-12-20T03:05:22;101321.06;;;0.99;79.03
26376;BME280;30544;42.196;24.336;2022-12-20T03:07:49;101315.25;;;1.13;79.32
26376;BME280;30544;42.196;24.336;2022-12-20T03:10:20;101313.28;;;0.95;79.52
26376;BME280;30544;42.196;24.336;2022-12-20T03:12:47;101315.22;;;1.04;79.27
26376;BME280;30544;42.196;24.336;2022-12-20T03:15:14;101313.88;;;0.98;79.24
26376;BME280;30544;42.196;24.336;2022-12-20T03:17:42;101316.25;;;1.12;79.55
26376;BME280;30544;42.196;24.336;2022-12-20T03:20:09;101310.63;;;1.14;80.12
26376;BME280;30544;42.196;24.336;2022-12-20T03:22:37;101313.28;;;0.95;80.55
26376;BME280;30544;42.196;24.336;2022-12-20T03:25:04;101314.22;;;0.63;81.85
26376;BME280;30544;42.196;24.336;2022-12-20T03:27:31;101311.03;;;0.58;82.24
26376;BME280;30544;42.196;24.336;2022-12-20T03:29:58;101302.47;;;0.93;82.05
26376;BME280;30544;42.196;24.336;2022-12-20T03:32:25;101307.53;;;0.98;81.00
26376;BME280;30544;42.196;24.336;2022-12-20T03:34:53;101309.28;;;0.78;81.72
26376;BME280;30544;42.196;24.336;2022-12-20T03:37:20;101307.56;;;0.56;81.62
26376;BME280;30544;42.196;24.336;2022-12-20T03:39:47;101318.41;;;0.67;80.91
26376;BME280;30544;42.196;24.336;2022-12-20T03:42:13;101318.78;;;0.53;81.11
26376;BME280;30544;42.196;24.336;2022-12-20T03:44:40;101314.03;;;0.34;82.46
26376;BME280;30544;42.196;24.336;2022-12-20T03:47:07;101309.16;;;0.38;82.35
26376;BME280;30544;42.196;24.336;2022-12-20T03:49:34;101315.63;;;0.37;82.12
26376;BME280;30544;42.196;24.336;2022-12-20T03:52:02;101311.78;;;0.39;82.27
26376;BME280;30544;42.196;24.336;2022-12-20T03:54:29;101314.22;;;0.21;82.29
26376;BME280;30544;42.196;24.336;2022-12-20T03:56:56;101317.56;;;0.14;82.68
26376;BME280;30544;42.196;24.336;2022-12-20T03:59:23;101318.22;;;0.17;82.81
26376;BME280;30544;42.196;24.336;2022-12-20T04:01:50;101316.72;;;0.13;83.42
26376;BME280;30544;42.196;24.336;2022-12-20T04:04:17;101319.72;;;0.31;83.33
26376;BME280;30544;42.196;24.336;2022-12-20T04:06:43;101317.22;;;0.39;82.65
26376;BME280;30544;42.196;24.336;2022-12-20T04:09:11;101317.81;;;0.22;83.10
26376;BME280;30544;42.196;24.336;2022-12-20T04:11:38;101319.44;;;0.13;82.88
26376;BME280;30544;42.196;24.336;2022-12-20T04:14:05;101325.09;;;0.01;83.45
26376;BME280;30544;42.196;24.336;2022-12-20T04:16:32;101328.63;;;0.12;82.55
26376;BME280;30544;42.196;24.336;2022-12-20T04:18:59;101323.78;;;-0.16;83.54
26376;BME280;30544;42.196;24.336;2022-12-20T04:21:27;101314.34;;;-0.12;84.47
26376;BME280;30544;42.196;24.336;2022-12-20T04:23:55;101314.06;;;-0.09;84.67
26376;BME280;30544;42.196;24.336;2022-12-20T04:26:24;101315.81;;;-0.08;84.39
26376;BME280;30544;42.196;24.336;2022-12-20T04:28:51;101315.59;;;-0.16;84.44
26376;BME280;30544;42.196;24.336;2022-12-20T04:31:18;101314.34;;;-0.12;84.56
26376;BME280;30544;42.196;24.336;2022-12-20T04:33:45;101319.72;;;-0.01;83.99
26376;BME280;30544;42.196;24.336;2022-12-20T04:36:13;101325.75;;;-0.18;84.30
26376;BME280;30544;42.196;24.336;2022-12-20T04:38:40;101323.31;;;-0.33;84.93
26376;BME280;30544;42.196;24.336;2022-12-20T04:41:07;101320.81;;;-0.36;85.67
26376;BME280;30544;42.196;24.336;2022-12-20T04:43:35;101317.28;;;-0.04;84.97
26376;BME280;30544;42.196;24.336;2022-12-20T04:46:02;101320.72;;;-0.02;84.45
26376;BME280;30544;42.196;24.336;2022-12-20T04:48:29;101318.81;;;-0.22;84.86
26376;BME280;30544;42.196;24.336;2022-12-20T04:50:55;101317.47;;;-0.17;84.81
26376;BME280;30544;42.196;24.336;2022-12-20T04:53:22;101319.28;;;-0.17;85.44
26376;BME280;30544;42.196;24.336;2022-12-20T04:56:06;101318.22;;;-0.26;85.75
26376;BME280;30544;42.196;24.336;2022-12-20T04:58:35;101319.88;;;-0.46;86.71
26376;BME280;30544;42.196;24.336;2022-12-20T05:01:02;101322.97;;;-0.50;86.47
26376;BME280;30544;42.196;24.336;2022-12-20T05:03:28;101322.94;;;-0.28;85.69
26376;BME280;30544;42.196;24.336;2022-12-20T05:05:55;101321.84;;;-0.48;85.39
26376;BME280;30544;42.196;24.336;2022-12-20T05:08:22;101318.13;;;-0.47;85.41
26376;BME280;30544;42.196;24.336;2022-12-20T05:10:49;101314.88;;;-0.41;85.47
26376;BME280;30544;42.196;24.336;2022-12-20T05:13:16;101325.56;;;-0.71;86.76
26376;BME280;30544;42.196;24.336;2022-12-20T05:15:44;101316.53;;;-0.61;86.89
26376;BME280;30544;42.196;24.336;2022-12-20T05:18:11;101316.28;;;-0.69;87.09
26376;BME280;30544;42.196;24.336;2022-12-20T05:20:39;101311.44;;;-0.43;86.62
26376;BME280;30544;42.196;24.336;2022-12-20T05:23:10;101319.25;;;-0.49;86.37
26376;BME280;30544;42.196;24.336;2022-12-20T05:25:54;101318.63;;;-0.53;87.05
26376;BME280;30544;42.196;24.336;2022-12-20T05:28:39;101319.25;;;-0.61;86.88
26376;BME280;30544;42.196;24.336;2022-12-20T05:31:07;101317.63;;;-0.41;86.57
26376;BME280;30544;42.196;24.336;2022-12-20T05:33:34;101316.00;;;-0.43;86.26
26376;BME280;30544;42.196;24.336;2022-12-20T05:36:00;101307.84;;;-0.43;85.92
26376;BME280;30544;42.196;24.336;2022-12-20T05:38:28;101307.94;;;-0.34;85.55
26376;BME280;30544;42.196;24.336;2022-12-20T05:40:54;101309.56;;;-0.31;85.13
26376;BME280;30544;42.196;24.336;2022-12-20T05:43:21;101314.66;;;-0.49;85.21
26376;BME280;30544;42.196;24.336;2022-12-20T05:45:49;101311.69;;;-0.57;85.39
26376;BME280;30544;42.196;24.336;2022-12-20T05:48:18;101309.44;;;-0.41;84.89
26376;BME280;30544;42.196;24.336;2022-12-20T05:50:46;101317.53;;;-0.50;85.16
26376;BME280;30544;42.196;24.336;2022-12-20T05:53:14;101317.88;;;-0.44;85.22
26376;BME280;30544;42.196;24.336;2022-12-20T05:55:43;101320.59;;;-0.33;84.80
26376;BME280;30544;42.196;24.336;2022-12-20T05:58:10;101315.63;;;-0.39;84.51
26376;BME280;30544;42.196;24.336;2022-12-20T06:00:38;101315.88;;;-0.42;84.68
26376;BME280;30544;42.196;24.336;2022-12-20T06:03:06;101325.66;;;-0.39;85.16
26376;BME280;30544;42.196;24.336;2022-12-20T06:05:35;101317.53;;;-0.62;86.29
26376;BME280;30544;42.196;24.336;2022-12-20T06:08:02;101318.13;;;-0.58;85.83
26376;BME280;30544;42.196;24.336;2022-12-20T06:10:29;101314.91;;;-0.52;85.74
26376;BME280;30544;42.196;24.336;2022-12-20T06:12:56;101313.63;;;-0.37;85.02
26376;BME280;30544;42.196;24.336;2022-12-20T06:15:23;101317.34;;;-0.26;84.62
26376;BME280;30544;42.196;24.336;2022-12-20T06:17:49;101322.78;;;-0.15;84.33
26376;BME280;30544;42.196;24.336;2022-12-20T06:20:16;101319.91;;;-0.14;84.11
26376;BME280;30544;42.196;24.336;2022-12-20T06:22:44;101323.25;;;-0.10;83.59
26376;BME280;30544;42.196;24.336;2022-12-20T06:25:11;101319.00;;;-0.03;83.43
26376;BME280;30544;42.196;24.336;2022-12-20T06:27:39;101323.00;;;-0.18;83.73
26376;BME280;30544;42.196;24.336;2022-12-20T06:30:09;101318.41;;;-0.18;84.40
26376;BME280;30544;42.196;24.336;2022-12-20T06:32:36;101321.28;;;-0.19;83.99
26376;BME280;30544;42.196;24.336;2022-12-20T06:35:04;101324.53;;;-0.37;84.27
26376;BME280;30544;42.196;24.336;2022-12-20T06:37:31;101317.97;;;-0.34;83.98
26376;BME280;30544;42.196;24.336;2022-12-20T06:40:00;101325.72;;;-0.07;83.36
26376;BME280;30544;42.196;24.336;2022-12-20T06:42:27;101319.34;;;-0.28;83.03
26376;BME280;30544;42.196;24.336;2022-12-20T06:44:54;101319.78;;;-0.12;82.60
26376;BME280;30544;42.196;24.336;2022-12-20T06:47:21;101325.69;;;0.04;82.61
26376;BME280;30544;42.196;24.336;2022-12-20T06:49:48;101313.06;;;0.03;82.50
26376;BME280;30544;42.196;24.336;2022-12-20T06:52:14;101315.63;;;0.37;81.67
26376;BME280;30544;42.196;24.336;2022-12-20T06:54:41;101320.38;;;0.35;80.84
26376;BME280;30544;42.196;24.336;2022-12-20T06:57:09;101318.81;;;0.42;80.46
26376;BME280;30544;42.196;24.336;2022-12-20T06:59:36;101319.78;;;0.52;80.27
26376;BME280;30544;42.196;24.336;2022-12-20T07:02:03;101312.50;;;0.41;80.39
26376;BME280;30544;42.196;24.336;2022-12-20T07:04:30;101317.56;;;0.46;79.38
26376;BME280;30544;42.196;24.336;2022-12-20T07:06:56;101326.16;;;0.41;79.49
26376;BME280;30544;42.196;24.336;2022-12-20T07:09:23;101310.50;;;0.64;78.13
26376;BME280;30544;42.196;24.336;2022-12-20T07:11:50;101314.84;;;0.87;77.74
26376;BME280;30544;42.196;24.336;2022-12-20T07:14:18;101312.50;;;0.62;78.05
26376;BME280;30544;42.196;24.336;2022-12-20T07:16:45;101314.50;;;0.60;77.63
26376;BME280;30544;42.196;24.336;2022-12-20T07:19:13;101311.28;;;0.97;75.60
26376;BME280;30544;42.196;24.336;2022-12-20T07:21:40;101301.03;;;1.19;74.63
26376;BME280;30544;42.196;24.336;2022-12-20T07:24:07;101303.91;;;1.18;74.96
26376;BME280;30544;42.196;24.336;2022-12-20T07:26:35;101295.66;;;1.39;74.45
26376;BME280;30544;42.196;24.336;2022-12-20T07:29:01;101297.84;;;1.14;75.59
26376;BME280;30544;42.196;24.336;2022-12-20T07:31:33;101290.56;;;0.94;77.12
26376;BME280;30544;42.196;24.336;2022-12-20T07:34:00;101287.69;;;0.96;76.97
26376;BME280;30544;42.196;24.336;2022-12-20T07:36:26;101292.66;;;1.11;74.61
26376;BME280;30544;42.196;24.336;2022-12-20T07:38:53;101276.94;;;1.44;74.07
26376;BME280;30544;42.196;24.336;2022-12-20T07:41:20;101281.91;;;1.79;73.56
26376;BME280;30544;42.196;24.336;2022-12-20T07:43:46;101278.03;;;1.81;71.30
26376;BME280;30544;42.196;24.336;2022-12-20T07:46:14;101281.88;;;1.60;70.60
26376;BME280;30544;42.196;24.336;2022-12-20T07:48:42;101278.19;;;1.99;70.03
26376;BME280;30544;42.196;24.336;2022-12-20T07:51:13;101277.81;;;1.44;69.44
26376;BME280;30544;42.196;24.336;2022-12-20T07:53:45;101276.47;;;1.98;70.27
26376;BME280;30544;42.196;24.336;2022-12-20T07:56:14;101274.31;;;2.11;68.59
26376;BME280;30544;42.196;24.336;2022-12-20T07:58:42;101277.63;;;1.86;68.66
26376;BME280;30544;42.196;24.336;2022-12-20T08:01:10;101266.13;;;2.02;67.42
26376;BME280;30544;42.196;24.336;2022-12-20T08:03:42;101269.84;;;2.10;67.01
26376;BME280;30544;42.196;24.336;2022-12-20T08:06:10;101269.13;;;2.18;66.07
26376;BME280;30544;42.196;24.336;2022-12-20T08:08:41;101261.59;;;2.49;66.22
26376;BME280;30544;42.196;24.336;2022-12-20T08:11:09;101264.06;;;2.33;66.77
26376;BME280;30544;42.196;24.336;2022-12-20T08:13:36;101264.22;;;2.31;67.16
26376;BME280;30544;42.196;24.336;2022-12-20T08:16:05;101257.94;;;2.78;66.33
26376;BME280;30544;42.196;24.336;2022-12-20T08:18:31;101259.25;;;3.20;65.56
26376;BME280;30544;42.196;24.336;2022-12-20T08:21:00;101256.69;;;3.09;66.38
26376;BME280;30544;42.196;24.336;2022-12-20T08:23:26;101255.09;;;2.69;67.50
26376;BME280;30544;42.196;24.336;2022-12-20T08:25:53;101253.38;;;2.59;69.83
26376;BME280;30544;42.196;24.336;2022-12-20T08:28:20;101249.06;;;2.56;69.14
26376;BME280;30544;42.196;24.336;2022-12-20T08:30:48;101254.16;;;2.88;68.66
26376;BME280;30544;42.196;24.336;2022-12-20T08:33:15;101258.19;;;2.94;67.63
26376;BME280;30544;42.196;24.336;2022-12-20T08:35:41;101257.22;;;3.22;68.22
26376;BME280;30544;42.196;24.336;2022-12-20T08:38:10;101252.22;;;3.08;67.49
26376;BME280;30544;42.196;24.336;2022-12-20T08:40:37;101244.72;;;3.38;67.08
26376;BME280;30544;42.196;24.336;2022-12-20T08:43:03;101245.75;;;2.99;66.72
26376;BME280;30544;42.196;24.336;2022-12-20T08:45:30;101240.03;;;3.20;67.26
26376;BME280;30544;42.196;24.336;2022-12-20T08:47:57;101237.34;;;2.64;67.83
26376;BME280;30544;42.196;24.336;2022-12-20T08:50:24;101236.03;;;3.42;65.66
26376;BME280;30544;42.196;24.336;2022-12-20T08:52:51;101234.53;;;2.93;65.82
26376;BME280;30544;42.196;24.336;2022-12-20T08:55:22;101226.78;;;3.43;66.24
26376;BME280;30544;42.196;24.336;2022-12-20T08:57:49;101224.50;;;3.01;66.13
26376;BME280;30544;42.196;24.336;2022-12-20T09:00:16;101230.53;;;2.78;65.84
26376;BME280;30544;42.196;24.336;2022-12-20T09:02:43;101224.31;;;3.13;64.00
26376;BME280;30544;42.196;24.336;2022-12-20T09:05:09;101228.13;;;3.02;64.32
26376;BME280;30544;42.196;24.336;2022-12-20T09:07:36;101222.94;;;2.99;64.70
26376;BME280;30544;42.196;24.336;2022-12-20T09:10:04;101210.00;;;2.91;65.32
26376;BME280;30544;42.196;24.336;2022-12-20T09:12:35;101208.91;;;2.75;65.76
26376;BME280;30544;42.196;24.336;2022-12-20T09:15:02;101207.88;;;2.76;65.94
26376;BME280;30544;42.196;24.336;2022-12-20T09:17:29;101203.81;;;3.62;63.08
26376;BME280;30544;42.196;24.336;2022-12-20T09:19:56;101196.81;;;3.05;63.56
26376;BME280;30544;42.196;24.336;2022-12-20T09:22:23;101187.00;;;3.29;62.88
26376;BME280;30544;42.196;24.336;2022-12-20T09:24:49;101188.63;;;2.95;64.71
26376;BME280;30544;42.196;24.336;2022-12-20T09:27:16;101190.25;;;3.60;62.30
26376;BME280;30544;42.196;24.336;2022-12-20T09:29:44;101176.16;;;3.00;65.36
26376;BME280;30544;42.196;24.336;2022-12-20T09:32:11;101188.84;;;3.11;63.16
26376;BME280;30544;42.196;24.336;2022-12-20T09:34:38;101176.38;;;3.17;62.91
26376;BME280;30544;42.196;24.336;2022-12-20T09:37:05;101170.50;;;3.75;61.88
26376;BME280;30544;42.196;24.336;2022-12-20T09:39:32;101169.16;;;3.61;61.08
26376;BME280;30544;42.196;24.336;2022-12-20T09:41:59;101156.38;;;3.52;61.74
26376;BME280;30544;42.196;24.336;2022-12-20T09:44:27;101150.81;;;3.44;63.41
26376;BME280;30544;42.196;24.336;2022-12-20T09:47:00;101146.13;;;3.89;61.85
26376;BME280;30544;42.196;24.336;2022-12-20T09:49:32;101145.78;;;3.92;61.49
26376;BME280;30544;42.196;24.336;2022-12-20T09:52:16;101143.06;;;3.75;62.01
26376;BME280;30544;42.196;24.336;2022-12-20T09:54:51;101136.75;;;4.00;60.52
26376;BME280;30544;42.196;24.336;2022-12-20T09:57:28;101132.03;;;4.10;61.98
26376;BME280;30544;42.196;24.336;2022-12-20T09:59:57;101119.34;;;3.03;62.89
26376;BME280;30544;42.196;24.336;2022-12-20T10:02:28;101119.75;;;3.25;62.75
26376;BME280;30544;42.196;24.336;2022-12-20T10:04:55;101109.50;;;3.63;61.45
26376;BME280;30544;42.196;24.336;2022-12-20T10:07:32;101106.53;;;3.56;61.30
26376;BME280;30544;42.196;24.336;2022-12-20T10:10:23;101106.69;;;3.73;61.98
26376;BME280;30544;42.196;24.336;2022-12-20T10:12:56;101102.03;;;3.73;60.89
26376;BME280;30544;42.196;24.336;2022-12-20T10:15:32;101088.38;;;3.81;60.86
26376;BME280;30544;42.196;24.336;2022-12-20T10:18:20;101091.44;;;3.78;62.09
26376;BME280;30544;42.196;24.336;2022-12-20T10:20:57;101083.84;;;3.72;61.88
26376;BME280;30544;42.196;24.336;2022-12-20T10:23:31;101084.16;;;3.87;60.24
26376;BME280;30544;42.196;24.336;2022-12-20T10:26:00;101077.25;;;4.09;60.72
26376;BME280;30544;42.196;24.336;2022-12-20T10:28:32;101072.31;;;4.12;61.20
26376;BME280;30544;42.196;24.336;2022-12-20T10:31:00;101075.59;;;4.16;60.29
26376;BME280;30544;42.196;24.336;2022-12-20T10:33:31;101064.06;;;3.86;61.74
26376;BME280;30544;42.196;24.336;2022-12-20T10:36:23;101053.25;;;4.11;61.81
26376;BME280;30544;42.196;24.336;2022-12-20T10:38:52;101049.22;;;4.23;60.56
26376;BME280;30544;42.196;24.336;2022-12-20T10:41:21;101042.00;;;4.22;61.10
26376;BME280;30544;42.196;24.336;2022-12-20T10:43:53;101033.69;;;4.14;61.18
26376;BME280;30544;42.196;24.336;2022-12-20T10:46:21;101023.56;;;4.14;61.35
26376;BME280;30544;42.196;24.336;2022-12-20T10:48:50;101024.59;;;4.47;60.96
26376;BME280;30544;42.196;24.336;2022-12-20T10:51:19;101016.50;;;4.46;60.04
26376;BME280;30544;42.196;24.336;2022-12-20T10:53:51;101011.88;;;4.46;59.94
26376;BME280;30544;42.196;24.336;2022-12-20T10:56:21;101007.63;;;4.60;59.38
26376;BME280;30544;42.196;24.336;2022-12-20T10:58:53;101004.44;;;4.81;58.94
26376;BME280;30544;42.196;24.336;2022-12-20T11:01:21;100995.09;;;4.58;59.75
26376;BME280;30544;42.196;24.336;2022-12-20T11:03:52;101000.81;;;4.30;60.26
26376;BME280;30544;42.196;24.336;2022-12-20T11:06:21;100990.16;;;4.27;59.55
26376;BME280;30544;42.196;24.336;2022-12-20T11:08:49;100982.78;;;4.28;60.34
26376;BME280;30544;42.196;24.336;2022-12-20T11:11:18;100980.00;;;4.70;59.30
26376;BME280;30544;42.196;24.336;2022-12-20T11:13:45;100977.00;;;5.13;58.07
26376;BME280;30544;42.196;24.336;2022-12-20T11:16:28;100973.41;;;5.29;57.68
26376;BME280;30544;42.196;24.336;2022-12-20T11:19:11;100960.75;;;4.62;59.34
26376;BME280;30544;42.196;24.336;2022-12-20T11:21:51;100952.91;;;4.91;58.71
26376;BME280;30544;42.196;24.336;2022-12-20T11:24:29;100950.16;;;4.91;56.86
26376;BME280;30544;42.196;24.336;2022-12-20T11:27:11;100947.25;;;5.09;54.69
26376;BME280;30544;42.196;24.336;2022-12-20T11:30:00;100937.09;;;5.01;52.25
26376;BME280;30544;42.196;24.336;2022-12-20T11:32:39;100935.75;;;5.05;54.49
26376;BME280;30544;42.196;24.336;2022-12-20T11:35:13;100930.59;;;5.27;52.64
26376;BME280;30544;42.196;24.336;2022-12-20T11:37:50;100912.69;;;5.14;52.02
26376;BME280;30544;42.196;24.336;2022-12-20T11:40:30;100913.72;;;5.38;51.52
26376;BME280;30544;42.196;24.336;2022-12-20T11:43:08;100916.47;;;5.30;52.23
26376;BME280;30544;42.196;24.336;2022-12-20T11:45:52;100907.88;;;4.76;53.45
26376;BME280;30544;42.196;24.336;2022-12-20T11:48:37;100904.09;;;5.09;51.77
26376;BME280;30544;42.196;24.336;2022-12-20T11:51:17;100902.03;;;5.28;53.03
26376;BME280;30544;42.196;24.336;2022-12-20T11:53:52;100891.03;;;5.20;53.50
26376;BME280;30544;42.196;24.336;2022-12-20T11:56:25;100890.00;;;5.29;53.66
26376;BME280;30544;42.196;24.336;2022-12-20T11:59:00;100879.81;;;5.37;53.64
26376;BME280;30544;42.196;24.336;2022-12-20T12:01:32;100887.94;;;5.06;53.27
26376;BME280;30544;42.196;24.336;2022-12-20T12:04:08;100879.34;;;5.18;53.50
26376;BME280;30544;42.196;24.336;2022-12-20T12:06:41;100880.53;;;5.15;53.93
26376;BME280;30544;42.196;24.336;2022-12-20T12:09:21;100876.94;;;5.14;53.85
26376;BME280;30544;42.196;24.336;2022-12-20T12:11:52;100869.88;;;4.79;55.22
26376;BME280;30544;42.196;24.336;2022-12-20T12:14:28;100872.81;;;5.02;54.43
26376;BME280;30544;42.196;24.336;2022-12-20T12:17:05;100860.25;;;4.83;54.56
26376;BME280;30544;42.196;24.336;2022-12-20T12:19:35;100864.91;;;4.99;55.12
26376;BME280;30544;42.196;24.336;2022-12-20T12:22:12;100851.00;;;4.93;55.44
26376;BME280;30544;42.196;24.336;2022-12-20T12:24:44;100852.69;;;5.02;56.25
26376;BME280;30544;42.196;24.336;2022-12-20T12:27:21;100856.66;;;4.91;55.81
26376;BME280;30544;42.196;24.336;2022-12-20T12:29:49;100863.53;;;4.79;55.04
26376;BME280;30544;42.196;24.336;2022-12-20T12:32:23;100848.06;;;4.94;54.81
26376;BME280;30544;42.196;24.336;2022-12-20T12:35:03;100853.34;;;5.36;55.31
26376;BME280;30544;42.196;24.336;2022-12-20T12:37:53;100853.25;;;5.69;53.84
26376;BME280;30544;42.196;24.336;2022-12-20T12:40:51;100850.13;;;4.76;54.79
26376;BME280;30544;42.196;24.336;2022-12-20T12:43:46;100844.44;;;5.02;55.30
26376;BME280;30544;42.196;24.336;2022-12-20T12:46:17;100846.34;;;4.85;54.12
26376;BME280;30544;42.196;24.336;2022-12-20T12:48:49;100846.00;;;5.12;54.08
26376;BME280;30544;42.196;24.336;2022-12-20T12:51:23;100843.22;;;5.29;53.63
26376;BME280;30544;42.196;24.336;2022-12-20T12:54:02;100840.94;;;5.49;53.23
26376;BME280;30544;42.196;24.336;2022-12-20T12:56:35;100850.59;;;5.44;53.87
26376;BME280;30544;42.196;24.336;2022-12-20T12:59:23;100845.13;;;5.28;54.51
26376;BME280;30544;42.196;24.336;2022-12-20T13:01:51;100857.50;;;5.00;56.01
26376;BME280;30544;42.196;24.336;2022-12-20T13:04:26;100848.53;;;5.30;53.98
26376;BME280;30544;42.196;24.336;2022-12-20T13:06:59;100840.41;;;5.53;54.05